sensor_id;sensor_type;location;lat;lon;timestamp;P1;durP1;ratioP1;P2;durP2;ratioP2
41719;SDS011;27405;53.316;-6.294;2023-05-02T00:01:03;11.70;;;5.88;;
41719;SDS011;27405;53.316;-6.294;2023-05-02T00:03:32;10.50;;;5.63;;
41719;SDS011;27405;53.316;-6.294;2023-05-02T00:05:58;10.13;;;6.07;;
41719;SDS011;27405;53.316;-6.294;2023-05-02T00:08:25;11.63;;;5.95;;
41719;SDS011;27405;53.316;-6.294;2023-05-02T00:10:50;12.98;;;6.32;;
41719;SDS011;27405;53.316;-6.294;2023-05-02T00:13:16;14.35;;;6.75;;
41719;SDS011;27405;53.316;-6.294;2023-05-02T00:15:42;11.93;;;7.03;;
41719;SDS011;27405;53.316;-6.294;2023-05-02T00:18:07;15.30;;;8.10;;
41719;SDS011;27405;53.316;-6.294;2023-05-02T00:20:33;16.58;;;9.38;;
41719;SDS011;27405;53.316;-6.294;2023-05-02T00:22:58;14.40;;;8.30;;
41719;SDS011;27405;53.316;-6.294;2023-05-02T00:25:24;14.35;;;8.20;;
41719;SDS011;27405;53.316;-6.294;2023-05-02T00:27:50;17.42;;;8.90;;
41719;SDS011;27405;53.316;-6.294;2023-05-02T00:30:16;16.60;;;8.90;;
41719;SDS011;27405;53.316;-6.294;2023-05-02T00:32:42;20.02;;;10.98;;
41719;SDS011;27405;53.316;-6.294;2023-05-02T00:35:08;20.40;;;11.32;;
41719;SDS011;27405;53.316;-6.294;2023-05-02T00:37:34;21.17;;;12.35;;
41719;SDS011;27405;53.316;-6.294;2023-05-02T00:40:00;20.38;;;12.65;;
41719;SDS011;27405;53.316;-6.294;2023-05-02T00:42:27;19.23;;;11.15;;
41719;SDS011;27405;53.316;-6.294;2023-05-02T00:44:55;20.52;;;10.68;;
41719;SDS011;27405;53.316;-6.294;2023-05-02T00:47:21;19.85;;;10.25;;
41719;SDS011;27405;53.316;-6.294;2023-05-02T00:49:48;16.25;;;7.78;;
41719;SDS011;27405;53.316;-6.294;2023-05-02T00:52:14;11.88;;;5.97;;
41719;SDS011;27405;53.316;-6.294;2023-05-02T00:54:40;8.15;;;3.83;;
41719;SDS011;27405;53.316;-6.294;2023-05-02T00:57:07;8.27;;;2.90;;
41719;SDS011;27405;53.316;-6.294;2023-05-02T00:59:35;6.32;;;2.20;;
41719;SDS011;27405;53.316;-6.294;2023-05-02T01:04:39;7.47;;;2.15;;
41719;SDS011;27405;53.316;-6.294;2023-05-02T01:12:57;6.78;;;2.33;;
41719;SDS011;27405;53.316;-6.294;2023-05-02T01:15:28;8.27;;;2.13;;
41719;SDS011;27405;53.316;-6.294;2023-05-02T01:17:55;6.68;;;2.20;;
41719;SDS011;27405;53.316;-6.294;2023-05-02T01:22:51;10.52;;;1.90;;
41719;SDS011;27405;53.316;-6.294;2023-05-02T01:30:23;9.27;;;2.08;;
41719;SDS011;27405;53.316;-6.294;2023-05-02T01:32:51;11.07;;;2.33;;
41719;SDS011;27405;53.316;-6.294;2023-05-02T01:35:19;9.90;;;2.58;;
41719;SDS011;27405;53.316;-6.294;2023-05-02T01:37:47;10.90;;;2.47;;
41719;SDS011;27405;53.316;-6.294;2023-05-02T01:40:17;9.88;;;2.22;;
41719;SDS011;27405;53.316;-6.294;2023-05-02T01:42:45;12.40;;;2.35;;
41719;SDS011;27405;53.316;-6.294;2023-05-02T01:45:15;9.55;;;2.33;;
41719;SDS011;27405;53.316;-6.294;2023-05-02T01:47:43;15.73;;;2.70;;
41719;SDS011;27405;53.316;-6.294;2023-05-02T01:50:10;10.75;;;2.50;;
41719;SDS011;27405;53.316;-6.294;2023-05-02T01:52:40;10.55;;;2.47;;
41719;SDS011;27405;53.316;-6.294;2023-05-02T01:55:07;11.52;;;2.83;;
41719;SDS011;27405;53.316;-6.294;2023-05-02T01:57:35;14.68;;;3.25;;
41719;SDS011;27405;53.316;-6.294;2023-05-02T02:00:03;11.77;;;3.20;;
41719;SDS011;27405;53.316;-6.294;2023-05-02T02:02:31;20.40;;;4.18;;
41719;SDS011;27405;53.316;-6.294;2023-05-02T02:04:59;14.68;;;3.90;;
41719;SDS011;27405;53.316;-6.294;2023-05-02T02:07:28;15.23;;;3.45;;
41719;SDS011;27405;53.316;-6.294;2023-05-02T02:09:54;20.27;;;3.40;;
41719;SDS011;27405;53.316;-6.294;2023-05-02T02:12:25;20.30;;;3.90;;
41719;SDS011;27405;53.316;-6.294;2023-05-02T02:14:58;12.90;;;3.10;;
41719;SDS011;27405;53.316;-6.294;2023-05-02T02:17:38;15.95;;;3.47;;
41719;SDS011;27405;53.316;-6.294;2023-05-02T02:20:07;15.88;;;4.45;;
41719;SDS011;27405;53.316;-6.294;2023-05-02T02:22:38;16.60;;;3.13;;
41719;SDS011;27405;53.316;-6.294;2023-05-02T02:25:07;13.52;;;3.45;;
41719;SDS011;27405;53.316;-6.294;2023-05-02T02:27:36;15.35;;;3.20;;
41719;SDS011;27405;53.316;-6.294;2023-05-02T02:30:02;15.63;;;3.53;;
41719;SDS011;27405;53.316;-6.294;2023-05-02T02:32:28;17.15;;;3.13;;
41719;SDS011;27405;53.316;-6.294;2023-05-02T02:34:54;13.77;;;2.67;;
41719;SDS011;27405;53.316;-6.294;2023-05-02T02:37:24;13.85;;;3.03;;
41719;SDS011;27405;53.316;-6.294;2023-05-02T02:45:49;12.38;;;2.80;;
41719;SDS011;27405;53.316;-6.294;2023-05-02T02:48:42;15.40;;;2.88;;
41719;SDS011;27405;53.316;-6.294;2023-05-02T02:53:59;13.95;;;2.95;;
41719;SDS011;27405;53.316;-6.294;2023-05-02T02:56:37;11.70;;;3.05;;
41719;SDS011;27405;53.316;-6.294;2023-05-02T03:01:47;15.07;;;3.13;;
41719;SDS011;27405;53.316;-6.294;2023-05-02T03:04:21;11.52;;;3.00;;
41719;SDS011;27405;53.316;-6.294;2023-05-02T03:06:48;17.30;;;3.00;;
41719;SDS011;27405;53.316;-6.294;2023-05-02T03:09:16;19.77;;;3.65;;
41719;SDS011;27405;53.316;-6.294;2023-05-02T03:14:10;13.50;;;3.13;;
41719;SDS011;27405;53.316;-6.294;2023-05-02T03:19:02;14.25;;;3.55;;
41719;SDS011;27405;53.316;-6.294;2023-05-02T03:21:29;15.10;;;3.00;;
41719;SDS011;27405;53.316;-6.294;2023-05-02T03:23:58;10.13;;;3.45;;
41719;SDS011;27405;53.316;-6.294;2023-05-02T03:26:25;13.10;;;3.60;;
41719;SDS011;27405;53.316;-6.294;2023-05-02T03:28:51;14.73;;;3.40;;
41719;SDS011;27405;53.316;-6.294;2023-05-02T03:31:17;12.05;;;3.38;;
41719;SDS011;27405;53.316;-6.294;2023-05-02T03:33:43;14.50;;;3.70;;
41719;SDS011;27405;53.316;-6.294;2023-05-02T03:36:09;13.93;;;3.38;;
41719;SDS011;27405;53.316;-6.294;2023-05-02T03:38:35;18.00;;;3.05;;
41719;SDS011;27405;53.316;-6.294;2023-05-02T03:41:01;15.15;;;3.30;;
41719;SDS011;27405;53.316;-6.294;2023-05-02T03:43:27;13.82;;;3.28;;
41719;SDS011;27405;53.316;-6.294;2023-05-02T03:45:52;18.27;;;3.42;;
41719;SDS011;27405;53.316;-6.294;2023-05-02T03:48:18;14.07;;;3.45;;
41719;SDS011;27405;53.316;-6.294;2023-05-02T03:50:44;16.65;;;2.90;;
41719;SDS011;27405;53.316;-6.294;2023-05-02T03:53:09;17.17;;;3.20;;
41719;SDS011;27405;53.316;-6.294;2023-05-02T03:55:38;13.73;;;3.28;;
41719;SDS011;27405;53.316;-6.294;2023-05-02T03:58:05;11.80;;;3.10;;
41719;SDS011;27405;53.316;-6.294;2023-05-02T04:00:31;15.45;;;3.45;;
41719;SDS011;27405;53.316;-6.294;2023-05-02T04:02:59;16.35;;;3.72;;
41719;SDS011;27405;53.316;-6.294;2023-05-02T04:05:25;14.50;;;3.33;;
41719;SDS011;27405;53.316;-6.294;2023-05-02T04:07:51;15.65;;;3.35;;
41719;SDS011;27405;53.316;-6.294;2023-05-02T04:10:16;14.80;;;3.50;;
41719;SDS011;27405;53.316;-6.294;2023-05-02T04:12:42;14.30;;;3.20;;
41719;SDS011;27405;53.316;-6.294;2023-05-02T04:15:09;14.77;;;3.38;;
41719;SDS011;27405;53.316;-6.294;2023-05-02T04:17:35;17.58;;;4.13;;
41719;SDS011;27405;53.316;-6.294;2023-05-02T04:20:01;12.15;;;3.38;;
41719;SDS011;27405;53.316;-6.294;2023-05-02T04:22:28;17.80;;;3.45;;
41719;SDS011;27405;53.316;-6.294;2023-05-02T04:24:54;18.73;;;4.03;;
41719;SDS011;27405;53.316;-6.294;2023-05-02T04:27:20;12.70;;;3.55;;
41719;SDS011;27405;53.316;-6.294;2023-05-02T04:29:48;20.63;;;3.72;;
41719;SDS011;27405;53.316;-6.294;2023-05-02T04:32:15;14.55;;;3.17;;
41719;SDS011;27405;53.316;-6.294;2023-05-02T04:34:40;18.17;;;3.40;;
41719;SDS011;27405;53.316;-6.294;2023-05-02T04:37:06;16.45;;;3.22;;
41719;SDS011;27405;53.316;-6.294;2023-05-02T04:39:32;20.75;;;3.95;;
41719;SDS011;27405;53.316;-6.294;2023-05-02T04:41:58;20.67;;;3.80;;
41719;SDS011;27405;53.316;-6.294;2023-05-02T04:44:24;15.50;;;3.10;;
41719;SDS011;27405;53.316;-6.294;2023-05-02T04:46:50;14.48;;;3.42;;
41719;SDS011;27405;53.316;-6.294;2023-05-02T04:49:15;14.35;;;3.15;;
41719;SDS011;27405;53.316;-6.294;2023-05-02T04:51:41;12.95;;;3.35;;
41719;SDS011;27405;53.316;-6.294;2023-05-02T04:54:07;18.20;;;3.28;;
41719;SDS011;27405;53.316;-6.294;2023-05-02T04:56:33;13.13;;;2.97;;
41719;SDS011;27405;53.316;-6.294;2023-05-02T04:58:58;16.55;;;3.53;;
41719;SDS011;27405;53.316;-6.294;2023-05-02T05:01:24;16.05;;;3.47;;
41719;SDS011;27405;53.316;-6.294;2023-05-02T05:03:52;10.07;;;2.97;;
41719;SDS011;27405;53.316;-6.294;2023-05-02T05:06:18;16.65;;;3.13;;
41719;SDS011;27405;53.316;-6.294;2023-05-02T05:08:44;14.00;;;2.97;;
41719;SDS011;27405;53.316;-6.294;2023-05-02T05:11:10;13.63;;;3.20;;
41719;SDS011;27405;53.316;-6.294;2023-05-02T05:13:37;15.82;;;3.28;;
41719;SDS011;27405;53.316;-6.294;2023-05-02T05:16:02;18.60;;;3.47;;
41719;SDS011;27405;53.316;-6.294;2023-05-02T05:18:28;16.05;;;3.65;;
41719;SDS011;27405;53.316;-6.294;2023-05-02T05:20:55;12.63;;;3.40;;
41719;SDS011;27405;53.316;-6.294;2023-05-02T05:23:21;14.30;;;3.30;;
41719;SDS011;27405;53.316;-6.294;2023-05-02T05:25:46;17.52;;;3.90;;
41719;SDS011;27405;53.316;-6.294;2023-05-02T05:28:12;14.20;;;3.63;;
41719;SDS011;27405;53.316;-6.294;2023-05-02T05:30:38;18.27;;;3.50;;
41719;SDS011;27405;53.316;-6.294;2023-05-02T05:33:03;13.05;;;3.67;;
41719;SDS011;27405;53.316;-6.294;2023-05-02T05:35:29;20.33;;;4.05;;
41719;SDS011;27405;53.316;-6.294;2023-05-02T05:37:56;16.35;;;3.85;;
41719;SDS011;27405;53.316;-6.294;2023-05-02T05:40:22;12.05;;;3.22;;
41719;SDS011;27405;53.316;-6.294;2023-05-02T05:42:48;10.95;;;3.00;;
41719;SDS011;27405;53.316;-6.294;2023-05-02T05:45:13;12.50;;;2.63;;
41719;SDS011;27405;53.316;-6.294;2023-05-02T05:47:41;15.50;;;3.35;;
41719;SDS011;27405;53.316;-6.294;2023-05-02T05:50:07;11.80;;;3.00;;
41719;SDS011;27405;53.316;-6.294;2023-05-02T05:52:33;16.05;;;3.20;;
41719;SDS011;27405;53.316;-6.294;2023-05-02T05:54:59;11.35;;;2.97;;
41719;SDS011;27405;53.316;-6.294;2023-05-02T05:57:25;11.05;;;3.22;;
41719;SDS011;27405;53.316;-6.294;2023-05-02T05:59:50;12.10;;;3.13;;
41719;SDS011;27405;53.316;-6.294;2023-05-02T06:02:16;13.65;;;3.10;;
41719;SDS011;27405;53.316;-6.294;2023-05-02T06:04:43;18.30;;;3.80;;
41719;SDS011;27405;53.316;-6.294;2023-05-02T06:07:10;13.90;;;3.25;;
41719;SDS011;27405;53.316;-6.294;2023-05-02T06:09:36;16.20;;;3.90;;
41719;SDS011;27405;53.316;-6.294;2023-05-02T06:12:02;24.15;;;4.38;;
41719;SDS011;27405;53.316;-6.294;2023-05-02T06:14:27;13.90;;;3.35;;
41719;SDS011;27405;53.316;-6.294;2023-05-02T06:16:53;14.15;;;3.42;;
41719;SDS011;27405;53.316;-6.294;2023-05-02T06:19:19;11.95;;;3.40;;
41719;SDS011;27405;53.316;-6.294;2023-05-02T06:21:45;18.30;;;4.47;;
41719;SDS011;27405;53.316;-6.294;2023-05-02T06:24:10;14.05;;;3.42;;
41719;SDS011;27405;53.316;-6.294;2023-05-02T06:26:36;13.02;;;3.50;;
41719;SDS011;27405;53.316;-6.294;2023-05-02T06:29:04;12.15;;;3.95;;
41719;SDS011;27405;53.316;-6.294;2023-05-02T06:31:30;13.13;;;4.70;;
41719;SDS011;27405;53.316;-6.294;2023-05-02T06:33:56;13.82;;;5.20;;
41719;SDS011;27405;53.316;-6.294;2023-05-02T06:36:21;12.48;;;4.28;;
41719;SDS011;27405;53.316;-6.294;2023-05-02T06:38:47;18.50;;;4.75;;
41719;SDS011;27405;53.316;-6.294;2023-05-02T06:41:13;13.32;;;4.10;;
41719;SDS011;27405;53.316;-6.294;2023-05-02T06:43:39;16.45;;;4.53;;
41719;SDS011;27405;53.316;-6.294;2023-05-02T06:46:05;16.02;;;4.82;;
41719;SDS011;27405;53.316;-6.294;2023-05-02T06:48:30;15.57;;;4.63;;
41719;SDS011;27405;53.316;-6.294;2023-05-02T06:50:56;16.67;;;4.35;;
41719;SDS011;27405;53.316;-6.294;2023-05-02T06:53:22;15.02;;;4.22;;
41719;SDS011;27405;53.316;-6.294;2023-05-02T06:55:47;13.95;;;4.53;;
41719;SDS011;27405;53.316;-6.294;2023-05-02T06:58:14;15.25;;;5.03;;
41719;SDS011;27405;53.316;-6.294;2023-05-02T07:00:40;13.13;;;3.95;;
41719;SDS011;27405;53.316;-6.294;2023-05-02T07:03:06;15.68;;;4.95;;
41719;SDS011;27405;53.316;-6.294;2023-05-02T07:05:31;12.90;;;4.88;;
41719;SDS011;27405;53.316;-6.294;2023-05-02T07:07:57;14.68;;;4.93;;
41719;SDS011;27405;53.316;-6.294;2023-05-02T07:10:23;12.15;;;4.40;;
41719;SDS011;27405;53.316;-6.294;2023-05-02T07:12:49;13.40;;;4.20;;
41719;SDS011;27405;53.316;-6.294;2023-05-02T07:15:15;13.23;;;4.43;;
41719;SDS011;27405;53.316;-6.294;2023-05-02T07:17:41;13.63;;;4.63;;
41719;SDS011;27405;53.316;-6.294;2023-05-02T07:20:07;15.65;;;4.30;;
41719;SDS011;27405;53.316;-6.294;2023-05-02T07:22:34;11.15;;;4.50;;
41719;SDS011;27405;53.316;-6.294;2023-05-02T07:25:00;13.50;;;4.63;;
41719;SDS011;27405;53.316;-6.294;2023-05-02T07:27:26;13.43;;;4.50;;
41719;SDS011;27405;53.316;-6.294;2023-05-02T07:29:52;14.45;;;4.63;;
41719;SDS011;27405;53.316;-6.294;2023-05-02T07:32:18;16.17;;;5.40;;
41719;SDS011;27405;53.316;-6.294;2023-05-02T07:34:45;11.90;;;5.00;;
41719;SDS011;27405;53.316;-6.294;2023-05-02T07:37:11;14.95;;;5.60;;
41719;SDS011;27405;53.316;-6.294;2023-05-02T07:39:37;15.02;;;5.72;;
41719;SDS011;27405;53.316;-6.294;2023-05-02T07:42:03;14.68;;;5.80;;
41719;SDS011;27405;53.316;-6.294;2023-05-02T07:44:28;15.40;;;5.70;;
41719;SDS011;27405;53.316;-6.294;2023-05-02T07:46:56;17.80;;;5.82;;
41719;SDS011;27405;53.316;-6.294;2023-05-02T07:49:21;13.05;;;4.82;;
41719;SDS011;27405;53.316;-6.294;2023-05-02T07:51:47;15.43;;;5.60;;
41719;SDS011;27405;53.316;-6.294;2023-05-02T07:54:14;16.98;;;5.40;;
41719;SDS011;27405;53.316;-6.294;2023-05-02T07:56:43;13.40;;;5.47;;
41719;SDS011;27405;53.316;-6.294;2023-05-02T07:59:09;11.52;;;5.38;;
41719;SDS011;27405;53.316;-6.294;2023-05-02T08:01:35;15.40;;;5.40;;
41719;SDS011;27405;53.316;-6.294;2023-05-02T08:04:01;17.42;;;5.70;;
41719;SDS011;27405;53.316;-6.294;2023-05-02T08:06:27;16.50;;;5.80;;
41719;SDS011;27405;53.316;-6.294;2023-05-02T08:08:53;17.25;;;5.75;;
41719;SDS011;27405;53.316;-6.294;2023-05-02T08:11:19;12.75;;;5.88;;
41719;SDS011;27405;53.316;-6.294;2023-05-02T08:13:49;14.48;;;5.95;;
41719;SDS011;27405;53.316;-6.294;2023-05-02T08:16:15;13.95;;;6.38;;
41719;SDS011;27405;53.316;-6.294;2023-05-02T08:18:41;16.65;;;7.00;;
41719;SDS011;27405;53.316;-6.294;2023-05-02T08:21:07;23.80;;;7.15;;
41719;SDS011;27405;53.316;-6.294;2023-05-02T08:23:32;13.65;;;6.40;;
41719;SDS011;27405;53.316;-6.294;2023-05-02T08:25:58;15.38;;;6.70;;
41719;SDS011;27405;53.316;-6.294;2023-05-02T08:28:24;16.38;;;7.00;;
41719;SDS011;27405;53.316;-6.294;2023-05-02T08:30:49;16.30;;;7.45;;
41719;SDS011;27405;53.316;-6.294;2023-05-02T08:33:15;20.33;;;9.07;;
41719;SDS011;27405;53.316;-6.294;2023-05-02T08:35:41;22.90;;;11.10;;
41719;SDS011;27405;53.316;-6.294;2023-05-02T08:38:06;22.52;;;11.00;;
41719;SDS011;27405;53.316;-6.294;2023-05-02T08:40:36;20.42;;;12.05;;
41719;SDS011;27405;53.316;-6.294;2023-05-02T08:43:02;19.30;;;11.45;;
41719;SDS011;27405;53.316;-6.294;2023-05-02T08:45:30;19.10;;;12.07;;
41719;SDS011;27405;53.316;-6.294;2023-05-02T08:48:06;21.77;;;11.05;;
41719;SDS011;27405;53.316;-6.294;2023-05-02T08:50:41;17.13;;;9.50;;
41719;SDS011;27405;53.316;-6.294;2023-05-02T08:53:11;15.30;;;6.80;;
41719;SDS011;27405;53.316;-6.294;2023-05-02T08:55:38;14.77;;;6.75;;
41719;SDS011;27405;53.316;-6.294;2023-05-02T08:58:06;14.07;;;6.72;;
41719;SDS011;27405;53.316;-6.294;2023-05-02T09:00:33;14.00;;;6.43;;
41719;SDS011;27405;53.316;-6.294;2023-05-02T09:03:08;12.30;;;6.38;;
41719;SDS011;27405;53.316;-6.294;2023-05-02T09:05:45;15.15;;;7.45;;
41719;SDS011;27405;53.316;-6.294;2023-05-02T09:08:22;13.50;;;7.40;;
41719;SDS011;27405;53.316;-6.294;2023-05-02T09:10:48;15.82;;;7.07;;
41719;SDS011;27405;53.316;-6.294;2023-05-02T09:13:31;14.57;;;7.25;;
41719;SDS011;27405;53.316;-6.294;2023-05-02T09:16:03;14.95;;;7.82;;
41719;SDS011;27405;53.316;-6.294;2023-05-02T09:18:32;15.88;;;7.47;;
41719;SDS011;27405;53.316;-6.294;2023-05-02T09:21:19;16.88;;;7.32;;
41719;SDS011;27405;53.316;-6.294;2023-05-02T09:23:55;18.88;;;8.60;;
41719;SDS011;27405;53.316;-6.294;2023-05-02T09:26:27;15.23;;;8.20;;
41719;SDS011;27405;53.316;-6.294;2023-05-02T09:28:55;16.48;;;8.80;;
41719;SDS011;27405;53.316;-6.294;2023-05-02T09:31:25;16.98;;;8.50;;
41719;SDS011;27405;53.316;-6.294;2023-05-02T09:33:57;19.50;;;9.75;;
41719;SDS011;27405;53.316;-6.294;2023-05-02T09:36:39;16.58;;;8.30;;
41719;SDS011;27405;53.316;-6.294;2023-05-02T09:39:10;17.60;;;7.82;;
41719;SDS011;27405;53.316;-6.294;2023-05-02T09:41:44;14.18;;;7.07;;
41719;SDS011;27405;53.316;-6.294;2023-05-02T09:44:14;13.85;;;7.57;;
41719;SDS011;27405;53.316;-6.294;2023-05-02T09:46:49;17.45;;;10.25;;
41719;SDS011;27405;53.316;-6.294;2023-05-02T09:49:17;17.27;;;8.40;;
41719;SDS011;27405;53.316;-6.294;2023-05-02T09:51:43;18.38;;;8.07;;
41719;SDS011;27405;53.316;-6.294;2023-05-02T09:54:11;19.88;;;8.93;;
41719;SDS011;27405;53.316;-6.294;2023-05-02T09:56:55;16.63;;;8.60;;
41719;SDS011;27405;53.316;-6.294;2023-05-02T09:59:21;18.23;;;9.02;;
41719;SDS011;27405;53.316;-6.294;2023-05-02T10:01:54;21.35;;;8.40;;
41719;SDS011;27405;53.316;-6.294;2023-05-02T10:04:21;16.35;;;8.93;;
41719;SDS011;27405;53.316;-6.294;2023-05-02T10:06:47;18.63;;;8.85;;
41719;SDS011;27405;53.316;-6.294;2023-05-02T10:09:15;17.77;;;8.73;;
41719;SDS011;27405;53.316;-6.294;2023-05-02T10:11:43;15.63;;;9.40;;
41719;SDS011;27405;53.316;-6.294;2023-05-02T10:14:09;17.33;;;9.90;;
41719;SDS011;27405;53.316;-6.294;2023-05-02T10:22:32;15.10;;;7.35;;
41719;SDS011;27405;53.316;-6.294;2023-05-02T10:24:58;17.70;;;10.07;;
41719;SDS011;27405;53.316;-6.294;2023-05-02T10:27:25;17.95;;;8.30;;
41719;SDS011;27405;53.316;-6.294;2023-05-02T10:29:53;16.15;;;8.70;;
41719;SDS011;27405;53.316;-6.294;2023-05-02T10:32:22;13.13;;;7.85;;
41719;SDS011;27405;53.316;-6.294;2023-05-02T10:34:52;16.00;;;8.15;;
41719;SDS011;27405;53.316;-6.294;2023-05-02T10:37:20;14.80;;;8.02;;
41719;SDS011;27405;53.316;-6.294;2023-05-02T10:39:47;19.85;;;8.43;;
41719;SDS011;27405;53.316;-6.294;2023-05-02T10:42:14;17.25;;;8.02;;
41719;SDS011;27405;53.316;-6.294;2023-05-02T10:44:42;20.73;;;9.35;;
41719;SDS011;27405;53.316;-6.294;2023-05-02T10:52:24;15.18;;;7.75;;
41719;SDS011;27405;53.316;-6.294;2023-05-02T10:55:13;15.80;;;7.07;;
41719;SDS011;27405;53.316;-6.294;2023-05-02T11:00:31;17.77;;;7.25;;
41719;SDS011;27405;53.316;-6.294;2023-05-02T11:02:58;15.93;;;7.57;;
41719;SDS011;27405;53.316;-6.294;2023-05-02T11:05:24;13.63;;;8.18;;
41719;SDS011;27405;53.316;-6.294;2023-05-02T11:10:41;16.33;;;7.88;;
41719;SDS011;27405;53.316;-6.294;2023-05-02T11:13:09;18.15;;;9.15;;
41719;SDS011;27405;53.316;-6.294;2023-05-02T11:18:07;17.75;;;8.98;;
41719;SDS011;27405;53.316;-6.294;2023-05-02T11:20:40;14.75;;;8.75;;
41719;SDS011;27405;53.316;-6.294;2023-05-02T11:25:39;21.85;;;9.45;;
41719;SDS011;27405;53.316;-6.294;2023-05-02T11:28:37;21.73;;;9.52;;
41719;SDS011;27405;53.316;-6.294;2023-05-02T11:31:03;16.35;;;9.30;;
41719;SDS011;27405;53.316;-6.294;2023-05-02T11:33:33;21.33;;;10.32;;
41719;SDS011;27405;53.316;-6.294;2023-05-02T11:35:59;18.75;;;9.13;;
41719;SDS011;27405;53.316;-6.294;2023-05-02T11:38:25;17.10;;;9.00;;
41719;SDS011;27405;53.316;-6.294;2023-05-02T11:40:59;21.02;;;9.10;;
41719;SDS011;27405;53.316;-6.294;2023-05-02T11:43:26;21.10;;;9.85;;
41719;SDS011;27405;53.316;-6.294;2023-05-02T11:45:53;23.52;;;11.57;;
41719;SDS011;27405;53.316;-6.294;2023-05-02T11:48:21;17.80;;;10.60;;
41719;SDS011;27405;53.316;-6.294;2023-05-02T11:50:52;19.70;;;11.40;;
41719;SDS011;27405;53.316;-6.294;2023-05-02T11:53:28;22.50;;;10.90;;
41719;SDS011;27405;53.316;-6.294;2023-05-02T11:58:21;18.92;;;9.68;;
41719;SDS011;27405;53.316;-6.294;2023-05-02T12:00:53;18.38;;;8.77;;
41719;SDS011;27405;53.316;-6.294;2023-05-02T12:03:37;16.92;;;9.38;;
41719;SDS011;27405;53.316;-6.294;2023-05-02T12:06:10;16.48;;;8.30;;
41719;SDS011;27405;53.316;-6.294;2023-05-02T12:08:38;15.73;;;7.85;;
41719;SDS011;27405;53.316;-6.294;2023-05-02T12:11:04;17.52;;;7.40;;
41719;SDS011;27405;53.316;-6.294;2023-05-02T12:13:33;18.17;;;7.57;;
41719;SDS011;27405;53.316;-6.294;2023-05-02T12:15:59;17.98;;;7.50;;
41719;SDS011;27405;53.316;-6.294;2023-05-02T12:18:25;17.42;;;7.28;;
41719;SDS011;27405;53.316;-6.294;2023-05-02T12:20:52;15.98;;;6.60;;
41719;SDS011;27405;53.316;-6.294;2023-05-02T12:23:19;16.17;;;6.00;;
41719;SDS011;27405;53.316;-6.294;2023-05-02T12:25:46;14.40;;;4.90;;
41719;SDS011;27405;53.316;-6.294;2023-05-02T12:28:13;12.95;;;4.30;;
41719;SDS011;27405;53.316;-6.294;2023-05-02T12:30:41;10.93;;;4.15;;
41719;SDS011;27405;53.316;-6.294;2023-05-02T12:33:07;14.63;;;4.30;;
41719;SDS011;27405;53.316;-6.294;2023-05-02T12:35:33;12.63;;;4.10;;
41719;SDS011;27405;53.316;-6.294;2023-05-02T12:38:16;8.45;;;3.80;;
41719;SDS011;27405;53.316;-6.294;2023-05-02T12:43:14;5.93;;;1.83;;
41719;SDS011;27405;53.316;-6.294;2023-05-02T12:45:40;2.30;;;1.30;;
41719;SDS011;27405;53.316;-6.294;2023-05-02T12:50:48;4.47;;;1.33;;
41719;SDS011;27405;53.316;-6.294;2023-05-02T12:53:14;2.58;;;1.13;;
41719;SDS011;27405;53.316;-6.294;2023-05-02T12:55:40;3.42;;;1.20;;
41719;SDS011;27405;53.316;-6.294;2023-05-02T12:58:07;3.10;;;1.30;;
41719;SDS011;27405;53.316;-6.294;2023-05-02T13:00:37;2.37;;;1.30;;
41719;SDS011;27405;53.316;-6.294;2023-05-02T13:03:05;3.22;;;1.10;;
41719;SDS011;27405;53.316;-6.294;2023-05-02T13:05:31;6.20;;;1.50;;
41719;SDS011;27405;53.316;-6.294;2023-05-02T13:07:57;4.15;;;1.60;;
41719;SDS011;27405;53.316;-6.294;2023-05-02T13:10:23;1.75;;;0.95;;
41719;SDS011;27405;53.316;-6.294;2023-05-02T13:12:50;2.40;;;1.60;;
41719;SDS011;27405;53.316;-6.294;2023-05-02T13:15:16;2.13;;;1.10;;
41719;SDS011;27405;53.316;-6.294;2023-05-02T13:17:43;3.80;;;1.42;;
41719;SDS011;27405;53.316;-6.294;2023-05-02T13:20:09;2.47;;;1.05;;
41719;SDS011;27405;53.316;-6.294;2023-05-02T13:22:35;4.45;;;1.38;;
41719;SDS011;27405;53.316;-6.294;2023-05-02T13:25:04;2.15;;;1.52;;
41719;SDS011;27405;53.316;-6.294;2023-05-02T13:27:30;2.42;;;1.20;;
41719;SDS011;27405;53.316;-6.294;2023-05-02T13:29:58;4.72;;;1.00;;
41719;SDS011;27405;53.316;-6.294;2023-05-02T13:32:25;2.05;;;1.08;;
41719;SDS011;27405;53.316;-6.294;2023-05-02T13:34:50;2.03;;;1.10;;
41719;SDS011;27405;53.316;-6.294;2023-05-02T13:37:16;1.98;;;0.77;;
41719;SDS011;27405;53.316;-6.294;2023-05-02T13:39:42;2.75;;;1.27;;
41719;SDS011;27405;53.316;-6.294;2023-05-02T13:42:07;3.13;;;1.10;;
41719;SDS011;27405;53.316;-6.294;2023-05-02T13:44:33;2.00;;;1.05;;
41719;SDS011;27405;53.316;-6.294;2023-05-02T13:46:59;3.53;;;1.48;;
41719;SDS011;27405;53.316;-6.294;2023-05-02T13:49:24;2.35;;;1.13;;
41719;SDS011;27405;53.316;-6.294;2023-05-02T13:51:50;1.50;;;1.05;;
41719;SDS011;27405;53.316;-6.294;2023-05-02T13:54:16;2.97;;;1.27;;
41719;SDS011;27405;53.316;-6.294;2023-05-02T13:56:41;3.10;;;1.33;;
41719;SDS011;27405;53.316;-6.294;2023-05-02T13:59:07;4.93;;;1.20;;
41719;SDS011;27405;53.316;-6.294;2023-05-02T14:01:34;3.22;;;1.52;;
41719;SDS011;27405;53.316;-6.294;2023-05-02T14:03:59;5.25;;;1.58;;
41719;SDS011;27405;53.316;-6.294;2023-05-02T14:06:30;2.20;;;1.33;;
41719;SDS011;27405;53.316;-6.294;2023-05-02T14:08:56;2.53;;;1.30;;
41719;SDS011;27405;53.316;-6.294;2023-05-02T14:11:22;3.10;;;1.35;;
41719;SDS011;27405;53.316;-6.294;2023-05-02T14:13:48;4.22;;;1.60;;
41719;SDS011;27405;53.316;-6.294;2023-05-02T14:16:14;6.18;;;1.40;;
41719;SDS011;27405;53.316;-6.294;2023-05-02T14:18:39;1.67;;;1.27;;
41719;SDS011;27405;53.316;-6.294;2023-05-02T14:21:05;7.85;;;1.70;;
41719;SDS011;27405;53.316;-6.294;2023-05-02T14:23:32;3.50;;;1.10;;
41719;SDS011;27405;53.316;-6.294;2023-05-02T14:25:57;3.72;;;1.42;;
41719;SDS011;27405;53.316;-6.294;2023-05-02T14:28:23;5.07;;;1.45;;
41719;SDS011;27405;53.316;-6.294;2023-05-02T14:30:51;1.63;;;1.00;;
41719;SDS011;27405;53.316;-6.294;2023-05-02T14:33:16;5.60;;;1.00;;
41719;SDS011;27405;53.316;-6.294;2023-05-02T14:35:42;3.53;;;1.02;;
41719;SDS011;27405;53.316;-6.294;2023-05-02T14:38:08;4.90;;;2.25;;
41719;SDS011;27405;53.316;-6.294;2023-05-02T14:40:34;3.13;;;1.00;;
41719;SDS011;27405;53.316;-6.294;2023-05-02T14:42:59;2.47;;;0.90;;
41719;SDS011;27405;53.316;-6.294;2023-05-02T14:45:25;3.05;;;1.17;;
41719;SDS011;27405;53.316;-6.294;2023-05-02T14:47:51;2.28;;;1.30;;
41719;SDS011;27405;53.316;-6.294;2023-05-02T14:50:17;6.45;;;2.38;;
41719;SDS011;27405;53.316;-6.294;2023-05-02T14:52:43;3.05;;;1.88;;
41719;SDS011;27405;53.316;-6.294;2023-05-02T14:55:11;7.53;;;3.08;;
41719;SDS011;27405;53.316;-6.294;2023-05-02T14:57:37;3.58;;;1.35;;
41719;SDS011;27405;53.316;-6.294;2023-05-02T15:00:03;3.80;;;1.27;;
41719;SDS011;27405;53.316;-6.294;2023-05-02T15:02:34;3.53;;;1.63;;
41719;SDS011;27405;53.316;-6.294;2023-05-02T15:05:00;2.03;;;1.30;;
41719;SDS011;27405;53.316;-6.294;2023-05-02T15:07:27;2.10;;;0.90;;
41719;SDS011;27405;53.316;-6.294;2023-05-02T15:09:53;1.58;;;0.85;;
41719;SDS011;27405;53.316;-6.294;2023-05-02T15:12:18;2.53;;;0.90;;
41719;SDS011;27405;53.316;-6.294;2023-05-02T15:14:44;2.30;;;0.90;;
41719;SDS011;27405;53.316;-6.294;2023-05-02T15:17:10;2.50;;;0.95;;
41719;SDS011;27405;53.316;-6.294;2023-05-02T15:19:35;2.80;;;1.00;;
41719;SDS011;27405;53.316;-6.294;2023-05-02T15:22:01;2.03;;;1.02;;
41719;SDS011;27405;53.316;-6.294;2023-05-02T15:24:27;3.67;;;1.00;;
41719;SDS011;27405;53.316;-6.294;2023-05-02T15:26:52;3.75;;;1.30;;